Historyczne dane pomiarowe

Dodano dane terminowe – wersja testowa.

Dane z okresu 1951-2019

Wersja bazy: 1.34 [2019-03-16, lista zmian], aktualizacja planowana na 2019-04-15

Dane meteo z obszaru Polski uzyskane na podstawie danych udostępnionych przez Instytut Meteorologii i Gospodarki Wodnej – Państwowy Instytut Badawczy.

 

Wybierz Datę:    

       

TemperaturaWilgotnośćWiatrCiśnienieOpadyŚniegCzas trwania zjawisk
 Stacja t tx tn tng RH VA  wxwx mslp ppp RRR   cm mm wxwxwxwxwxwxwx
1999-08-14 13.0 20.3 4.9- 94.3- 4.0 0.0---- 0.0------------
1999-08-13 14.1 19.9 9.3- 92.0- 6.0 0.7---- 0.0------------
1999-08-12 15.2 20.0 12.4- 98.0- 8.0 0.0---- 0.0------------
1999-08-11 19.2 24.5 14.6- 94.0- 8.0 0.0---- 11.5------------
1999-08-10 20.2 29.1 14.2- 98.3- 8.0 0.0---- 16.1------------
1999-08-09 19.7 29.8 12.2- 91.0- 5.3 0.0---- 12.4------------
1999-08-08 21.3 27.9 14.7- 88.3- 4.0 0.0---- 0.0------------
1999-08-07 20.6 28.9 10.8- 88.8- 4.0 0.0---- 0.0------------
1999-08-06 19.7 26.5 13.7- 93.8- 4.7 0.7---- 0.0------------
1999-08-05 16.8 25.9 7.4- 85.3- 3.3 0.0---- 0.2------------
1999-08-04 16.1 24.0 7.3- 91.0- 1.3 0.0---- 0.0------------
1999-08-03 15.4 22.0 8.6- 87.0- 6.7 1.0---- 0.0------------
1999-08-02 14.7 21.1 8.3- 90.5- 8.0 0.0---- 0.0------------
1999-08-01 16.5 22.6 10.6- 94.5- 5.3 0.7---- 0.0------------
1999-07-31 15.6 23.5 6.9- 86.3- 4.7 1.3---- 0.0------------
1999-07-30 15.3 23.2 7.1- 91.5- 4.0 0.7---- 0.0------------
1999-07-29 17.2 22.8 10.6- 87.3- 2.7 1.0---- 0.0------------
1999-07-28 18.7 23.5 14.7- 90.8- 5.3 0.0---- 0.0------------
1999-07-27 18.4 22.4 15.2- 99.8- 8.0 0.0---- 1.1------------
1999-07-26 18.2 25.2 11.1- 96.5- 6.0 0.7---- 0.0------------
1999-07-25 17.2 24.3 9.8- 96.8- 4.0 0.0---- 0.0------------
1999-07-24 15.2 20.3 11.3- 94.5- 8.0 0.0---- 0.0------------
1999-07-23 14.8 19.8 12.4- 98.0- 8.0 0.0---- 15.6------------
1999-07-22 18.2 22.3 13.3- 90.3- 8.0 0.7---- 9.2------------
1999-07-21 20.0 28.9 12.5- 85.3- 4.7 1.0---- 0.2------------
1999-07-20 19.9 28.6 10.1- 88.5- 0.0 0.0---- 0.0------------
1999-07-19 18.5 27.4 8.3- 89.0- 1.3 0.0---- 0.0------------
1999-07-18 16.8 25.0 7.3- 94.8- 0.7 0.0---- 0.0------------
1999-07-17 16.2 23.2 8.8- 86.5- 0.7 0.0---- 0.0------------
1999-07-16 15.4 21.3 10.6- 87.3- 6.0 0.7---- 0.0------------
1999-07-15 16.8 20.9 14.3- 87.5- 5.3 0.0---- 0.0------------
1999-07-14 20.1 27.2 15.7- 98.5- 8.0 0.0---- 21.5------------
1999-07-13 20.4 26.0 14.8- 92.3- 5.0 0.0---- 16.6------------
1999-07-12 20.2 27.1 14.5- 95.0- 4.3 0.0---- 0.8------------
1999-07-11 19.1 20.6 16.2- 93.3- 8.0 0.7---- 13.8------------
1999-07-10 19.8 21.3 18.2- 94.8- 8.0 0.7---- 0.0------------
1999-07-09 18.5 22.0 15.2- 95.8- 8.0 0.7---- 1.0------------
1999-07-08 17.5 22.9 14.7- 98.0- 8.0 0.0---- 22.0------------
1999-07-07 21.9 29.5 15.7- 88.0- 6.0 0.0---- 38.0------------
1999-07-06 25.2 31.4 14.3- 74.8- 1.3 1.0---- 0.0------------
1999-07-05 23.5 32.0 13.3- 77.3- 0.0 0.7---- 0.0------------
1999-07-04 21.6 30.8 10.0- 88.0- 0.0 0.0---- 0.0------------
1999-07-03 19.2 25.4 11.8- 89.5- 3.3 0.7---- 0.0------------
1999-07-02 19.2 24.3 14.0- 90.0- 3.3 0.0---- 0.0------------
1999-07-01 17.6 24.5 10.8- 89.5- 6.7 0.0---- 0.0------------
1999-06-30 18.7 25.0 11.6- 95.0- 7.3 0.7---- 0.0------------
1999-06-29 19.0 24.0 12.7- 83.5- 2.7 0.0---- 0.0------------
1999-06-28 17.7 27.9 9.8- 92.0- 5.3 0.7---- 12.1------------
1999-06-27 18.7 28.4 7.2- 81.5- 0.7 1.3---- 0.0------------
1999-06-26 16.4 25.2 5.0- 86.3- 0.0 0.0---- 0.0------------
1999-06-25 11.5 19.2 3.3- 89.8- 0.7 0.0---- 0.0------------
1999-06-24 12.0 17.0 8.4- 98.3- 7.0 0.0---- 0.0------------
1999-06-23 9.2 11.0 7.3- 98.3- 8.0 1.0---- 7.8------------
1999-06-22 10.6 16.2 8.0- 98.3- 8.0 3.3---- 30.8------------
1999-06-21 17.9 23.2 14.1- 97.8- 5.3 0.0---- 29.8------------
1999-06-20 17.5 21.1 14.2- 96.0- 8.0 0.7---- 1.2------------
1999-06-19 15.4 18.6 12.7- 97.0- 8.0 0.7---- 0.0------------
1999-06-18 16.8 19.4 15.7- 98.5- 8.0 0.0---- 23.2------------
1999-06-17 18.3 21.5 15.7- 95.8- 8.0 0.0---- 8.2------------
1999-06-16 16.9 19.6 14.6- 98.0- 8.0 0.0---- 0.3------------
270.2 ms

 

Źródłem pochodzenia danych jest Instytut Meteorologii i Gospodarki Wodnej – Państwowy Instytut Badawczy. Dane Instytutu Meteorologii i Gospodarki Wodnej – Państwowego Instytutu Badawczego zostały przetworzone.

Dane źródłowe można odnaleźć na stronie https://dane.imgw.pl